createdAt,value
2019-02-15T00:00:13.015Z,8.60
2019-02-15T00:01:12.967Z,9.30
2019-02-15T00:02:12.975Z,10.00
2019-02-15T00:03:12.959Z,9.80
2019-02-15T00:04:12.945Z,9.30
2019-02-15T00:05:12.930Z,10.10
2019-02-15T00:06:12.917Z,9.90
2019-02-15T00:07:12.955Z,10.00
2019-02-15T00:08:12.898Z,9.40
2019-02-15T00:09:12.882Z,9.40
2019-02-15T00:10:12.887Z,10.20
2019-02-15T00:11:12.875Z,9.90
2019-02-15T00:12:12.866Z,9.80
2019-02-15T00:13:13.802Z,9.40
2019-02-15T00:14:12.829Z,9.80
2019-02-15T00:15:12.827Z,9.80
2019-02-15T00:16:12.813Z,9.10
2019-02-15T00:17:12.795Z,8.90
2019-02-15T00:18:12.806Z,9.40
2019-02-15T00:19:12.781Z,9.50
2019-02-15T00:20:12.767Z,9.70
2019-02-15T00:21:12.756Z,8.90
2019-02-15T00:22:12.753Z,8.60
2019-02-15T00:23:12.766Z,9.10
2019-02-15T00:24:12.755Z,9.30
2019-02-15T00:25:12.723Z,8.60
2019-02-15T00:26:12.707Z,9.20
2019-02-15T00:27:12.697Z,9.10
2019-02-15T00:28:12.733Z,8.80
2019-02-15T00:29:12.669Z,8.50
2019-02-15T00:30:12.661Z,8.70
2019-02-15T00:31:12.650Z,8.90
2019-02-15T00:32:12.647Z,8.70
2019-02-15T00:33:12.655Z,8.60
2019-02-15T00:34:12.632Z,8.80
2019-02-15T00:35:12.609Z,8.50
2019-02-15T00:36:12.593Z,8.60
2019-02-15T00:37:12.591Z,8.50
2019-02-15T00:38:12.607Z,9.10
2019-02-15T00:39:12.571Z,9.30
2019-02-15T00:40:12.560Z,9.40
2019-02-15T00:41:12.571Z,8.50
2019-02-15T00:42:12.549Z,8.60
2019-02-15T00:43:12.539Z,9.30
2019-02-15T00:44:12.521Z,9.90
2019-02-15T00:45:12.513Z,8.90
2019-02-15T00:46:12.489Z,8.30
2019-02-15T00:47:12.487Z,9.70
2019-02-15T00:48:12.495Z,9.60
2019-02-15T00:49:12.466Z,9.00
2019-02-15T00:50:12.446Z,8.20
2019-02-15T00:51:12.438Z,9.50
2019-02-15T00:52:12.421Z,8.90
2019-02-15T00:53:12.461Z,8.80
2019-02-15T00:54:12.413Z,9.50
2019-02-15T00:55:12.513Z,8.90
2019-02-15T00:56:12.387Z,9.00
2019-02-15T00:57:12.386Z,9.40
2019-02-15T00:58:12.386Z,8.40
2019-02-15T00:59:12.363Z,8.80
2019-02-15T01:00:12.357Z,9.30
2019-02-15T01:01:12.356Z,8.70
2019-02-15T01:02:12.344Z,9.50
2019-02-15T01:03:12.375Z,9.20
2019-02-15T01:04:12.326Z,8.90
2019-02-15T01:05:12.300Z,8.60
2019-02-15T01:06:12.284Z,8.80
2019-02-15T01:07:12.267Z,8.90
2019-02-15T01:08:12.275Z,8.70
2019-02-15T01:09:12.245Z,8.50
2019-02-15T01:10:12.256Z,8.70
2019-02-15T01:11:12.261Z,8.80
2019-02-15T01:12:12.221Z,9.00
2019-02-15T01:13:12.305Z,8.80
2019-02-15T01:14:12.211Z,9.40
2019-02-15T01:15:12.226Z,8.90
2019-02-15T01:16:12.219Z,8.50
2019-02-15T01:17:12.215Z,8.60
2019-02-15T01:18:12.185Z,8.20
2019-02-15T01:19:12.156Z,8.50
2019-02-15T01:20:12.157Z,8.60
2019-02-15T01:21:12.166Z,8.30
2019-02-15T01:22:12.135Z,9.00
2019-02-15T01:23:12.148Z,8.80
2019-02-15T01:24:12.141Z,9.00
2019-02-15T01:25:12.093Z,8.90
2019-02-15T01:26:12.100Z,9.50
2019-02-15T01:27:12.087Z,9.40
2019-02-15T01:28:12.087Z,8.90
2019-02-15T01:29:12.071Z,8.00
2019-02-15T01:30:12.032Z,8.50
2019-02-15T01:31:12.121Z,8.60
2019-02-15T01:32:12.039Z,9.20
2019-02-15T01:33:12.059Z,8.70
2019-02-15T01:34:12.016Z,8.50
2019-02-15T01:35:12.001Z,8.90
2019-02-15T01:36:12.016Z,7.90
2019-02-15T01:37:11.965Z,9.00
2019-02-15T01:38:11.966Z,8.30
2019-02-15T01:39:11.971Z,8.00
2019-02-15T01:40:11.973Z,8.50
2019-02-15T01:41:11.941Z,7.80
2019-02-15T01:42:11.896Z,8.40
2019-02-15T01:43:11.940Z,8.70
2019-02-15T01:44:11.944Z,8.60
2019-02-15T01:45:11.881Z,9.40
2019-02-15T01:46:11.863Z,9.30
2019-02-15T01:47:11.863Z,8.80
2019-02-15T01:48:11.845Z,8.90
2019-02-15T01:49:11.845Z,9.10
2019-02-15T01:50:11.910Z,8.90
2019-02-15T01:51:11.817Z,9.80
2019-02-15T01:52:11.838Z,8.50
2019-02-15T01:53:11.815Z,8.50
2019-02-15T01:54:11.807Z,8.70
2019-02-15T01:55:11.786Z,9.00
2019-02-15T01:56:11.755Z,9.00
2019-02-15T01:57:11.761Z,10.30
2019-02-15T01:58:11.757Z,9.30
2019-02-15T01:59:11.757Z,9.70
2019-02-15T02:00:11.728Z,9.60
2019-02-15T02:01:11.712Z,9.10
2019-02-15T02:02:11.685Z,9.60
2019-02-15T02:03:11.677Z,9.20
2019-02-15T02:04:11.696Z,8.50
2019-02-15T02:05:11.686Z,9.10
2019-02-15T02:06:11.654Z,9.40
2019-02-15T02:07:11.633Z,9.10
2019-02-15T02:08:11.627Z,9.00
2019-02-15T02:09:11.690Z,9.00
2019-02-15T02:10:11.629Z,9.10
2019-02-15T02:11:11.611Z,9.40
2019-02-15T02:12:11.610Z,8.50
2019-02-15T02:13:11.561Z,8.70
2019-02-15T02:14:11.669Z,9.30
2019-02-15T02:15:11.590Z,8.80
2019-02-15T02:16:11.562Z,8.70
2019-02-15T02:17:11.536Z,9.10
2019-02-15T02:18:11.524Z,8.20
2019-02-15T02:19:11.695Z,8.60
2019-02-15T02:20:11.576Z,8.60
2019-02-15T02:21:11.521Z,8.60
2019-02-15T02:22:11.484Z,8.70
2019-02-15T02:23:11.499Z,8.20
2019-02-15T02:24:11.522Z,8.50
2019-02-15T02:25:11.515Z,9.00
2019-02-15T02:26:11.440Z,9.10
2019-02-15T02:27:11.448Z,8.10
2019-02-15T02:28:11.417Z,9.50
2019-02-15T02:29:11.445Z,7.90
2019-02-15T02:30:11.427Z,8.30
2019-02-15T02:31:11.396Z,8.50
2019-02-15T02:32:11.507Z,9.10
2019-02-15T02:33:11.369Z,9.00
2019-02-15T02:34:11.369Z,8.90
2019-02-15T02:35:11.380Z,8.60
2019-02-15T02:36:11.327Z,8.30
2019-02-15T02:37:11.354Z,8.30
2019-02-15T02:38:11.325Z,8.50
2019-02-15T02:39:11.299Z,8.60
2019-02-15T02:40:11.411Z,7.60
2019-02-15T02:41:11.350Z,8.80
2019-02-15T02:42:11.255Z,8.60
2019-02-15T02:43:11.263Z,9.10
2019-02-15T02:44:11.256Z,8.60
2019-02-15T02:45:11.274Z,8.40
2019-02-15T02:46:11.274Z,8.50
2019-02-15T02:47:11.211Z,8.20
2019-02-15T02:48:11.193Z,8.60
2019-02-15T02:49:11.204Z,8.20
2019-02-15T02:50:11.221Z,8.30
2019-02-15T02:51:11.226Z,8.60
2019-02-15T02:52:11.194Z,9.00
2019-02-15T02:53:11.196Z,8.90
2019-02-15T02:54:11.131Z,9.00
2019-02-15T02:55:11.150Z,8.80
2019-02-15T02:56:11.142Z,8.80
2019-02-15T02:57:11.119Z,8.30
2019-02-15T02:58:11.111Z,9.30
2019-02-15T02:59:11.104Z,8.50
2019-02-15T03:00:11.073Z,8.50
2019-02-15T03:01:11.125Z,8.60
2019-02-15T03:02:11.059Z,8.40
2019-02-15T03:03:11.091Z,9.10
2019-02-15T03:04:11.034Z,8.60
2019-02-15T03:05:11.020Z,8.30
2019-02-15T03:06:11.022Z,8.10
2019-02-15T03:07:11.005Z,8.90
2019-02-15T03:08:11.115Z,8.00
2019-02-15T03:09:11.959Z,8.30
2019-02-15T03:10:11.012Z,8.60
2019-02-15T03:11:10.999Z,8.40
2019-02-15T03:12:10.982Z,8.80
2019-02-15T03:13:11.000Z,8.90
2019-02-15T03:14:11.946Z,9.10
2019-02-15T03:15:11.086Z,8.90
2019-02-15T03:16:10.945Z,8.30
2019-02-15T03:17:10.931Z,8.70
2019-02-15T03:18:10.930Z,8.60
2019-02-15T03:19:10.908Z,9.20
2019-02-15T03:20:10.978Z,8.30
2019-02-15T03:21:10.916Z,8.50
2019-02-15T03:22:10.876Z,8.20
2019-02-15T03:23:10.883Z,8.50
2019-02-15T03:24:10.853Z,8.70
2019-02-15T03:25:10.823Z,9.30
2019-02-15T03:26:10.917Z,9.80
2019-02-15T03:27:10.788Z,9.20
2019-02-15T03:28:10.776Z,8.80
2019-02-15T03:29:10.767Z,8.70
2019-02-15T03:30:10.772Z,9.40
2019-02-15T03:31:10.771Z,9.50
2019-02-15T03:32:10.753Z,8.80
2019-02-15T03:33:10.853Z,9.00
2019-02-15T03:34:10.771Z,8.30
2019-02-15T03:35:10.755Z,9.20
2019-02-15T03:36:10.777Z,9.00
2019-02-15T03:37:10.714Z,8.50
2019-02-15T03:38:10.730Z,9.30
2019-02-15T03:39:10.839Z,9.50
2019-02-15T03:40:10.649Z,9.10
2019-02-15T03:41:10.666Z,9.00
2019-02-15T03:42:10.622Z,8.50
2019-02-15T03:43:10.623Z,9.50
2019-02-15T03:44:10.607Z,9.00
2019-02-15T03:45:10.589Z,8.90
2019-02-15T03:46:10.624Z,9.00
2019-02-15T03:47:10.573Z,9.20
2019-02-15T03:48:10.555Z,9.40
2019-02-15T03:49:10.574Z,9.90
2019-02-15T03:50:10.541Z,9.20
2019-02-15T03:51:10.720Z,9.00
2019-02-15T03:52:10.532Z,9.40
2019-02-15T03:53:10.512Z,9.80
2019-02-15T03:54:10.500Z,8.60
2019-02-15T03:55:10.489Z,8.40
2019-02-15T03:56:10.499Z,9.10
2019-02-15T03:57:10.517Z,8.70
2019-02-15T03:58:10.469Z,9.20
2019-02-15T03:59:10.442Z,9.00
2019-02-15T04:00:10.498Z,8.90
2019-02-15T04:01:10.445Z,9.00
2019-02-15T04:02:10.967Z,9.00
2019-02-15T04:03:10.404Z,8.90
2019-02-15T04:04:10.408Z,8.50
2019-02-15T04:05:10.376Z,9.20
2019-02-15T04:06:10.408Z,8.70
2019-02-15T04:07:10.383Z,9.10
2019-02-15T04:08:10.403Z,9.50
2019-02-15T04:09:10.365Z,9.90
2019-02-15T04:10:10.352Z,9.40
2019-02-15T04:11:14.880Z,9.00
2019-02-15T04:12:15.112Z,9.50
2019-02-15T04:13:11.559Z,9.50
2019-02-15T04:14:10.325Z,9.50
2019-02-15T04:15:11.192Z,10.20
2019-02-15T04:16:10.336Z,9.30
2019-02-15T04:17:10.270Z,9.40
2019-02-15T04:18:10.300Z,8.90
2019-02-15T04:19:10.254Z,8.70
2019-02-15T04:20:10.287Z,9.80
2019-02-15T04:21:10.258Z,9.90
2019-02-15T04:22:10.300Z,9.20
2019-02-15T04:23:10.184Z,9.60
2019-02-15T04:24:10.226Z,8.90
2019-02-15T04:25:10.182Z,8.60
2019-02-15T04:26:10.191Z,9.70
2019-02-15T04:27:10.200Z,9.50
2019-02-15T04:28:10.210Z,9.30
2019-02-15T04:29:10.137Z,10.20
2019-02-15T04:30:10.124Z,9.10
2019-02-15T04:31:10.140Z,8.70
2019-02-15T04:32:10.138Z,8.90
2019-02-15T04:33:10.102Z,9.20
2019-02-15T04:34:10.074Z,9.20
2019-02-15T04:35:10.068Z,9.60
2019-02-15T04:36:10.074Z,9.70
2019-02-15T04:37:10.070Z,9.70
2019-02-15T04:38:10.035Z,9.50
2019-02-15T04:39:10.052Z,9.30
2019-02-15T04:40:10.132Z,9.10
2019-02-15T04:41:09.997Z,9.70
2019-02-15T04:42:10.002Z,9.70
2019-02-15T04:43:10.025Z,9.40
2019-02-15T04:44:09.974Z,9.90
2019-02-15T04:45:09.950Z,10.00
2019-02-15T04:46:09.939Z,10.70
2019-02-15T04:47:09.954Z,10.00
2019-02-15T04:48:09.935Z,9.20
2019-02-15T04:49:09.948Z,10.40
2019-02-15T04:50:09.892Z,10.10
2019-02-15T04:52:10.984Z,9.70
2019-02-15T04:53:09.854Z,9.90
2019-02-15T04:54:09.837Z,9.50
2019-02-15T04:56:10.992Z,9.60
2019-02-15T04:58:10.967Z,9.70
2019-02-15T04:59:09.857Z,9.90
2019-02-15T05:00:30.872Z,9.30
2019-02-15T05:02:18.939Z,11.00
2019-02-15T05:03:19.633Z,10.00
2019-02-15T05:04:18.905Z,9.60
2019-02-15T05:05:18.872Z,9.90
2019-02-15T05:06:18.884Z,10.60
2019-02-15T05:07:20.042Z,10.20
2019-02-15T05:08:18.858Z,9.90
2019-02-15T05:09:19.714Z,10.80
2019-02-15T05:10:18.827Z,10.00
2019-02-15T05:11:18.842Z,9.90
2019-02-15T05:12:18.860Z,9.60
2019-02-15T05:13:18.844Z,10.30
2019-02-15T05:14:18.788Z,10.40
2019-02-15T05:15:18.781Z,9.90
2019-02-15T05:16:18.784Z,10.20
2019-02-15T05:17:18.757Z,10.30
2019-02-15T05:18:18.787Z,9.50
2019-02-15T05:19:18.749Z,10.30
2019-02-15T05:20:18.716Z,10.80
2019-02-15T05:21:18.714Z,10.50
2019-02-15T05:22:18.702Z,10.20
2019-02-15T05:23:18.735Z,10.80
2019-02-15T05:24:18.730Z,10.40
2019-02-15T05:25:18.664Z,10.00
2019-02-15T05:26:18.672Z,10.10
2019-02-15T05:27:18.671Z,10.80
2019-02-15T05:28:18.676Z,10.30
2019-02-15T05:29:18.643Z,11.50
2019-02-15T05:30:18.646Z,10.50
2019-02-15T05:31:18.600Z,10.40
2019-02-15T05:32:18.643Z,10.60
2019-02-15T05:33:18.632Z,9.90
2019-02-15T05:34:18.610Z,10.80
2019-02-15T05:35:18.570Z,10.90
2019-02-15T05:36:18.610Z,10.00
2019-02-15T05:37:18.554Z,9.60
2019-02-15T05:38:18.553Z,11.00
2019-02-15T05:39:18.552Z,10.00
2019-02-15T05:40:18.662Z,10.80
2019-02-15T05:41:18.520Z,10.30
2019-02-15T05:42:18.488Z,10.40
2019-02-15T05:43:18.478Z,10.70
2019-02-15T05:44:18.496Z,10.30
2019-02-15T05:45:18.484Z,10.10
2019-02-15T05:46:18.444Z,10.10
2019-02-15T05:47:18.445Z,10.70
2019-02-15T05:48:18.422Z,9.70
2019-02-15T05:49:18.428Z,10.10
2019-02-15T05:50:18.476Z,10.30
2019-02-15T05:51:18.454Z,9.30
2019-02-15T05:52:18.385Z,10.00
2019-02-15T05:53:18.395Z,10.30
2019-02-15T05:54:18.390Z,10.20
2019-02-15T05:55:18.458Z,9.70
2019-02-15T05:56:18.361Z,10.50
2019-02-15T05:57:18.351Z,10.00
2019-02-15T05:58:18.316Z,9.60
2019-02-15T05:59:18.325Z,10.60
2019-02-15T06:00:18.288Z,9.60
2019-02-15T06:01:18.289Z,10.10
2019-02-15T06:02:18.292Z,10.30
2019-02-15T06:03:18.284Z,10.40
2019-02-15T06:04:18.266Z,10.40
2019-02-15T06:05:18.270Z,11.60
2019-02-15T06:06:18.232Z,10.30
2019-02-15T06:07:18.233Z,11.20
2019-02-15T06:08:18.238Z,10.30
2019-02-15T06:09:18.228Z,11.40
2019-02-15T06:10:20.537Z,10.80
2019-02-15T06:11:18.192Z,10.50
2019-02-15T06:12:18.172Z,10.80
2019-02-15T06:13:18.183Z,10.10
2019-02-15T06:14:18.192Z,10.30
2019-02-15T06:15:18.135Z,11.60
2019-02-15T06:16:18.144Z,11.20
2019-02-15T06:17:18.158Z,10.90
2019-02-15T06:18:18.118Z,11.50
2019-02-15T06:19:18.097Z,10.30
2019-02-15T06:20:18.731Z,11.00
2019-02-15T06:21:18.076Z,11.30
2019-02-15T06:22:18.848Z,10.20
2019-02-15T06:23:18.042Z,10.70
2019-02-15T06:24:18.060Z,11.90
2019-02-15T06:25:18.759Z,11.40
2019-02-15T06:27:19.270Z,10.30
2019-02-15T06:28:17.987Z,11.00
2019-02-15T06:29:17.969Z,10.60
2019-02-15T06:31:19.114Z,10.40
2019-02-15T06:32:17.949Z,10.50
2019-02-15T06:33:18.022Z,10.80
2019-02-15T06:34:17.925Z,10.30
2019-02-15T06:35:17.938Z,10.10
2019-02-15T06:36:17.911Z,11.60
2019-02-15T06:37:17.908Z,13.10
2019-02-15T06:38:17.891Z,11.80
2019-02-15T06:39:17.869Z,10.90
2019-02-15T06:40:17.910Z,11.10
2019-02-15T06:41:17.854Z,10.70
2019-02-15T06:42:17.855Z,11.50
2019-02-15T06:43:17.851Z,11.30
2019-02-15T06:44:17.823Z,11.60
2019-02-15T06:45:24.325Z,12.40
2019-02-15T06:46:18.802Z,11.10
2019-02-15T06:47:17.785Z,11.90
2019-02-15T06:48:17.907Z,11.90
2019-02-15T06:49:17.780Z,10.50
2019-02-15T06:50:17.777Z,10.80
2019-02-15T06:51:17.773Z,10.90
2019-02-15T06:52:17.734Z,10.70
2019-02-15T06:53:17.742Z,10.90
2019-02-15T06:54:20.284Z,10.80
2019-02-15T06:55:17.726Z,11.80
2019-02-15T06:56:17.691Z,10.80
2019-02-15T06:57:17.685Z,10.60
2019-02-15T06:58:17.696Z,10.70
2019-02-15T06:59:17.652Z,10.80
2019-02-15T07:00:17.740Z,10.70
2019-02-15T07:01:17.645Z,11.50
2019-02-15T07:02:17.658Z,11.30
2019-02-15T07:03:17.629Z,13.20
2019-02-15T07:04:17.637Z,12.00
2019-02-15T07:05:17.619Z,12.10
2019-02-15T07:06:17.584Z,12.30
2019-02-15T07:07:17.583Z,12.70
2019-02-15T07:08:17.555Z,11.40
2019-02-15T07:09:17.556Z,11.80
2019-02-15T07:10:17.585Z,12.80
2019-02-15T07:11:20.292Z,13.20
2019-02-15T07:12:17.543Z,14.10
2019-02-15T07:13:17.518Z,13.40
2019-02-15T07:14:17.500Z,13.40
2019-02-15T07:15:17.512Z,13.60
2019-02-15T07:16:17.502Z,13.70
2019-02-15T07:17:17.472Z,14.70
2019-02-15T07:18:17.520Z,13.40
2019-02-15T07:19:17.444Z,12.70
2019-02-15T07:20:17.496Z,13.10
2019-02-15T07:21:17.491Z,12.50
2019-02-15T07:22:17.459Z,11.10
2019-02-15T07:23:17.434Z,11.40
2019-02-15T07:24:17.463Z,11.90
2019-02-15T07:25:17.403Z,11.40
2019-02-15T07:26:17.430Z,11.20
2019-02-15T07:27:17.423Z,11.80
2019-02-15T07:28:17.357Z,12.80
2019-02-15T07:29:17.464Z,12.30
2019-02-15T07:30:17.486Z,11.20
2019-02-15T07:31:17.411Z,11.80
2019-02-15T07:32:17.306Z,10.90
2019-02-15T07:33:17.292Z,11.40
2019-02-15T07:34:17.295Z,11.60
2019-02-15T07:35:17.277Z,11.80
2019-02-15T07:36:17.299Z,11.20
2019-02-15T07:37:17.284Z,12.20
2019-02-15T07:38:17.234Z,12.60
2019-02-15T07:39:17.246Z,11.50
2019-02-15T07:40:17.230Z,12.50
2019-02-15T07:41:17.396Z,12.30
2019-02-15T07:42:17.197Z,12.40
2019-02-15T07:43:17.205Z,11.70
2019-02-15T07:44:17.192Z,12.40
2019-02-15T07:45:17.829Z,12.40
2019-02-15T07:46:17.192Z,12.40
2019-02-15T07:47:17.159Z,13.20
2019-02-15T07:48:17.177Z,12.30
2019-02-15T07:49:26.421Z,12.60
2019-02-15T07:50:18.146Z,13.50
2019-02-15T07:51:17.150Z,12.80
2019-02-15T07:52:17.110Z,13.10
2019-02-15T07:53:17.091Z,13.00
2019-02-15T07:54:17.079Z,13.00
2019-02-15T07:55:17.064Z,13.50
2019-02-15T07:56:17.087Z,13.20
2019-02-15T07:57:17.147Z,13.20
2019-02-15T07:58:17.060Z,13.40
2019-02-15T07:59:17.073Z,12.70
2019-02-15T08:00:17.010Z,14.00
2019-02-15T08:01:17.043Z,13.60
2019-02-15T08:02:17.017Z,12.80
2019-02-15T08:03:16.981Z,13.10
2019-02-15T08:04:16.964Z,13.70
2019-02-15T08:05:16.946Z,13.20
2019-02-15T08:06:17.003Z,13.10
2019-02-15T08:07:16.931Z,14.30
2019-02-15T08:08:16.919Z,13.50
2019-02-15T08:09:16.920Z,14.00
2019-02-15T08:10:16.907Z,12.70
2019-02-15T08:11:16.892Z,11.90
2019-02-15T08:12:16.997Z,11.80
2019-02-15T08:13:16.874Z,11.90
2019-02-15T08:14:17.682Z,17.20
2019-02-15T08:15:16.853Z,25.20
2019-02-15T08:16:16.883Z,17.30
2019-02-15T08:17:16.879Z,13.30
2019-02-15T08:18:16.828Z,15.10
2019-02-15T08:19:16.845Z,20.10
2019-02-15T08:20:16.809Z,14.90
2019-02-15T08:21:16.799Z,12.80
2019-02-15T08:22:16.805Z,12.80
2019-02-15T08:23:16.821Z,12.50
2019-02-15T08:24:16.762Z,11.80
2019-02-15T08:25:16.759Z,12.30
2019-02-15T08:26:16.731Z,12.40
2019-02-15T08:27:16.757Z,12.90
2019-02-15T08:28:16.735Z,12.40
2019-02-15T08:29:16.714Z,11.90
2019-02-15T08:30:16.699Z,11.60
2019-02-15T08:31:16.690Z,12.80
2019-02-15T08:32:16.673Z,13.90
2019-02-15T08:33:16.784Z,12.70
2019-02-15T08:34:16.638Z,11.60
2019-02-15T08:35:16.687Z,22.10
2019-02-15T08:36:16.621Z,30.30
2019-02-15T08:37:16.666Z,12.10
2019-02-15T08:38:16.617Z,11.40
2019-02-15T08:39:16.677Z,18.00
2019-02-15T08:40:16.581Z,12.60
2019-02-15T08:41:16.563Z,11.30
2019-02-15T08:42:16.561Z,12.10
2019-02-15T08:43:16.604Z,11.00
2019-02-15T08:44:16.558Z,10.20
2019-02-15T08:45:16.549Z,10.20
2019-02-15T08:46:16.515Z,10.60
2019-02-15T08:47:16.515Z,10.30
2019-02-15T08:48:16.509Z,10.30
2019-02-15T08:49:16.529Z,10.70
2019-02-15T08:50:16.486Z,10.50
2019-02-15T08:51:16.453Z,10.40
2019-02-15T08:52:16.489Z,10.40
2019-02-15T08:53:16.462Z,11.10
2019-02-15T08:54:16.566Z,10.90
2019-02-15T08:55:16.445Z,10.90
2019-02-15T08:56:16.437Z,10.40
2019-02-15T08:57:16.459Z,10.60
2019-02-15T08:58:16.448Z,11.30
2019-02-15T08:59:16.426Z,11.60
2019-02-15T09:00:16.371Z,10.90
2019-02-15T09:01:16.364Z,10.50
2019-02-15T09:02:16.341Z,10.30
2019-02-15T09:03:16.362Z,10.50
2019-02-15T09:04:16.381Z,10.90
2019-02-15T09:05:16.334Z,10.90
2019-02-15T09:06:16.305Z,11.40
2019-02-15T09:07:16.318Z,11.50
2019-02-15T09:08:16.314Z,10.80
2019-02-15T09:09:16.265Z,11.20
2019-02-15T09:10:16.253Z,11.70
2019-02-15T09:11:16.259Z,11.50
2019-02-15T09:12:16.262Z,10.90
2019-02-15T09:13:16.256Z,10.40
2019-02-15T09:14:16.208Z,10.40
2019-02-15T09:15:16.201Z,11.10
2019-02-15T09:16:16.183Z,11.30
2019-02-15T09:17:16.179Z,10.50
2019-02-15T09:18:16.194Z,10.70
2019-02-15T09:19:16.181Z,10.50
2019-02-15T09:20:16.147Z,10.20
2019-02-15T09:21:16.165Z,10.10
2019-02-15T09:22:16.142Z,10.10
2019-02-15T09:23:16.152Z,11.00
2019-02-15T09:24:16.119Z,11.20
2019-02-15T09:25:16.133Z,10.00
2019-02-15T09:26:18.215Z,10.60
2019-02-15T09:27:16.069Z,10.30
2019-02-15T09:28:16.200Z,10.20
2019-02-15T09:29:16.062Z,10.20
2019-02-15T09:30:16.069Z,10.10
2019-02-15T09:31:16.029Z,10.20
2019-02-15T09:32:16.022Z,10.60
2019-02-15T09:33:16.071Z,9.90
2019-02-15T09:34:16.017Z,10.30
2019-02-15T09:35:15.995Z,10.40
2019-02-15T09:36:15.989Z,9.90
2019-02-15T09:37:15.961Z,10.20
2019-02-15T09:38:15.965Z,10.50
2019-02-15T09:39:15.952Z,10.80
2019-02-15T09:40:15.923Z,10.30
2019-02-15T09:41:15.941Z,10.90
2019-02-15T09:42:15.931Z,10.80
2019-02-15T09:43:15.895Z,10.20
2019-02-15T09:44:15.942Z,10.40
2019-02-15T09:45:15.881Z,10.10
2019-02-15T09:46:19.875Z,10.70
2019-02-15T09:47:15.855Z,11.40
2019-02-15T09:48:15.862Z,11.30
2019-02-15T09:49:15.873Z,11.40
2019-02-15T09:50:15.823Z,10.70
2019-02-15T09:51:15.818Z,10.80
2019-02-15T09:52:15.807Z,11.20
2019-02-15T09:53:15.795Z,12.20
2019-02-15T09:54:15.823Z,11.60
2019-02-15T09:55:15.790Z,12.40
2019-02-15T09:56:15.750Z,11.90
2019-02-15T09:57:15.755Z,11.90
2019-02-15T09:58:16.544Z,12.30
2019-02-15T09:59:15.758Z,15.20
2019-02-15T10:00:15.711Z,13.10
2019-02-15T10:01:15.703Z,12.10
2019-02-15T10:02:15.701Z,12.60
2019-02-15T10:03:15.707Z,12.30
2019-02-15T10:04:15.693Z,12.30
2019-02-15T10:05:15.656Z,12.40
2019-02-15T10:06:15.645Z,13.20
2019-02-15T10:07:15.630Z,12.60
2019-02-15T10:08:15.651Z,12.40
2019-02-15T10:09:15.628Z,13.20
2019-02-15T10:10:15.610Z,12.60
2019-02-15T10:11:15.589Z,12.70
2019-02-15T10:12:15.582Z,13.00
2019-02-15T10:13:15.573Z,11.90
2019-02-15T10:14:15.577Z,11.70
2019-02-15T10:15:15.568Z,12.20
2019-02-15T10:16:15.541Z,11.80
2019-02-15T10:17:15.528Z,12.50
2019-02-15T10:18:15.515Z,11.80
2019-02-15T10:19:22.196Z,12.30
2019-02-15T10:20:16.513Z,12.10
2019-02-15T10:21:15.496Z,12.30
2019-02-15T10:22:15.466Z,13.00
2019-02-15T10:23:15.466Z,12.30
2019-02-15T10:24:15.478Z,12.00
2019-02-15T10:25:15.438Z,11.30
2019-02-15T10:26:15.443Z,12.00
2019-02-15T10:27:15.428Z,11.60
2019-02-15T10:28:15.411Z,12.00
2019-02-15T10:29:15.411Z,12.00
2019-02-15T10:30:15.389Z,12.10
2019-02-15T10:31:15.373Z,11.50
2019-02-15T10:32:15.371Z,11.30
2019-02-15T10:33:15.389Z,11.40
2019-02-15T10:34:15.384Z,11.30
2019-02-15T10:35:15.343Z,11.70
2019-02-15T10:36:15.326Z,11.00
2019-02-15T10:37:15.313Z,11.50
2019-02-15T10:38:15.318Z,11.60
2019-02-15T10:39:15.374Z,11.60
2019-02-15T10:40:15.267Z,10.70
2019-02-15T10:41:15.259Z,11.40
2019-02-15T10:42:15.266Z,11.70
2019-02-15T10:43:15.248Z,10.70
2019-02-15T10:44:15.257Z,10.70
2019-02-15T10:45:15.260Z,10.50
2019-02-15T10:46:15.215Z,11.30
2019-02-15T10:47:24.415Z,11.00
2019-02-15T10:48:16.206Z,10.70
2019-02-15T10:49:15.189Z,10.50
2019-02-15T10:50:15.302Z,10.40
2019-02-15T10:51:15.151Z,11.20
2019-02-15T10:52:15.163Z,10.60
2019-02-15T10:53:15.174Z,10.90
2019-02-15T10:54:15.174Z,11.10
2019-02-15T10:55:15.149Z,10.40
2019-02-15T10:56:15.123Z,10.80
2019-02-15T10:57:15.259Z,10.40
2019-02-15T10:58:15.087Z,10.20
2019-02-15T10:59:15.088Z,10.50
2019-02-15T11:00:15.088Z,10.40
2019-02-15T11:01:15.070Z,9.90
2019-02-15T11:02:15.055Z,10.20
2019-02-15T11:03:15.030Z,9.90
2019-02-15T11:04:15.017Z,10.50
2019-02-15T11:05:15.024Z,9.70
2019-02-15T11:06:14.998Z,9.90
2019-02-15T11:07:15.007Z,10.80
2019-02-15T11:08:14.973Z,10.30
2019-02-15T11:09:14.965Z,9.30
2019-02-15T11:10:14.964Z,9.20
2019-02-15T11:11:14.940Z,9.70
2019-02-15T11:12:14.942Z,9.30
2019-02-15T11:13:14.935Z,9.70
2019-02-15T11:14:14.906Z,9.40
2019-02-15T11:15:14.933Z,9.60
2019-02-15T11:16:14.898Z,8.90
2019-02-15T11:17:14.882Z,8.90
2019-02-15T11:18:14.878Z,8.90
2019-02-15T11:19:14.863Z,8.80
2019-02-15T11:20:14.902Z,8.00
2019-02-15T11:21:14.823Z,8.20
2019-02-15T11:22:14.818Z,8.00
2019-02-15T11:23:14.814Z,8.70
2019-02-15T11:24:14.830Z,8.50
2019-02-15T11:25:14.817Z,9.20
2019-02-15T11:26:14.777Z,8.50
2019-02-15T11:27:14.801Z,8.60
2019-02-15T11:28:14.758Z,8.80
2019-02-15T11:29:14.784Z,8.80
2019-02-15T11:30:14.781Z,8.20
2019-02-15T11:31:16.491Z,8.80
2019-02-15T11:32:14.708Z,8.80
2019-02-15T11:33:14.712Z,8.20
2019-02-15T11:34:14.688Z,8.40
2019-02-15T11:35:14.703Z,8.40
2019-02-15T11:36:14.670Z,8.30
2019-02-15T11:37:14.652Z,7.80
2019-02-15T11:38:14.660Z,7.10
2019-02-15T11:39:14.644Z,8.50
2019-02-15T11:40:14.658Z,8.20
2019-02-15T11:41:14.629Z,7.50
2019-02-15T11:42:14.597Z,7.50
2019-02-15T11:43:15.153Z,7.40
2019-02-15T11:44:14.587Z,8.20
2019-02-15T11:45:14.641Z,7.90
2019-02-15T11:46:14.585Z,7.80
2019-02-15T11:47:14.544Z,8.10
2019-02-15T11:48:14.536Z,8.10
2019-02-15T11:49:14.524Z,8.40
2019-02-15T11:50:14.539Z,8.20
2019-02-15T11:51:14.508Z,8.20
2019-02-15T11:52:14.510Z,7.60
2019-02-15T11:53:14.485Z,7.70
2019-02-15T11:54:23.110Z,7.10
2019-02-15T11:55:15.488Z,7.70
2019-02-15T11:56:14.452Z,7.60
2019-02-15T11:57:14.442Z,7.20
2019-02-15T11:58:14.440Z,7.50
2019-02-15T11:59:14.454Z,7.80
2019-02-15T12:00:14.896Z,7.90
2019-02-15T12:01:14.433Z,7.10
2019-02-15T12:02:14.382Z,7.60
2019-02-15T12:03:14.374Z,6.80
2019-02-15T12:04:14.379Z,7.40
2019-02-15T12:05:14.355Z,6.70
2019-02-15T12:06:14.356Z,6.50
2019-02-15T12:07:14.343Z,7.30
2019-02-15T12:08:14.326Z,6.90
2019-02-15T12:09:14.339Z,6.80
2019-02-15T12:10:14.369Z,6.40
2019-02-15T12:11:14.355Z,6.80
2019-02-15T12:12:14.294Z,6.40
2019-02-15T12:13:14.266Z,6.90
2019-02-15T12:14:14.267Z,7.60
2019-02-15T12:15:14.256Z,7.50
2019-02-15T12:16:14.268Z,7.90
2019-02-15T12:17:14.217Z,7.20
2019-02-15T12:18:14.208Z,7.10
2019-02-15T12:19:14.206Z,6.70
2019-02-15T12:20:14.203Z,6.30
2019-02-15T12:21:14.200Z,7.30
2019-02-15T12:22:14.194Z,6.40
2019-02-15T12:23:14.175Z,6.80
2019-02-15T12:24:14.150Z,7.70
2019-02-15T12:25:14.138Z,7.40
2019-02-15T12:26:14.160Z,7.00
2019-02-15T12:27:14.126Z,6.90
2019-02-15T12:28:14.112Z,6.50
2019-02-15T12:29:14.112Z,6.60
2019-02-15T12:30:14.108Z,6.40
2019-02-15T12:31:14.110Z,7.10
2019-02-15T12:32:14.074Z,7.10
2019-02-15T12:33:14.052Z,6.60
2019-02-15T12:34:14.062Z,7.10
2019-02-15T12:35:14.030Z,7.00
2019-02-15T12:36:14.036Z,6.70
2019-02-15T12:37:14.011Z,7.00
2019-02-15T12:38:14.008Z,7.00
2019-02-15T12:39:14.438Z,6.60
2019-02-15T12:40:13.970Z,6.80
2019-02-15T12:41:14.028Z,6.60
2019-02-15T12:42:13.964Z,6.40
2019-02-15T12:43:13.952Z,7.00
2019-02-15T12:44:13.977Z,6.00
2019-02-15T12:45:13.922Z,7.40
2019-02-15T12:46:13.924Z,6.00
2019-02-15T12:47:15.340Z,6.80
2019-02-15T12:48:13.891Z,7.60
2019-02-15T12:49:13.882Z,7.90
2019-02-15T12:50:13.865Z,7.60
2019-02-15T12:51:13.874Z,7.60
2019-02-15T12:52:13.854Z,7.50
2019-02-15T12:53:13.854Z,7.10
2019-02-15T12:54:13.828Z,7.10
2019-02-15T12:55:13.825Z,6.80
2019-02-15T12:56:13.827Z,7.00
2019-02-15T12:57:13.791Z,6.60
2019-02-15T12:58:13.776Z,6.60
2019-02-15T12:59:13.778Z,6.50
2019-02-15T13:00:13.769Z,7.30
2019-02-15T13:01:13.771Z,6.80
2019-02-15T13:02:13.741Z,7.30
2019-02-15T13:03:13.741Z,7.00
2019-02-15T13:04:13.721Z,6.20
2019-02-15T13:05:13.708Z,6.80
2019-02-15T13:06:13.714Z,5.80
2019-02-15T13:07:13.704Z,6.20
2019-02-15T13:08:13.682Z,6.00
2019-02-15T13:09:13.662Z,6.20
2019-02-15T13:10:13.658Z,6.20
2019-02-15T13:11:13.665Z,6.20
2019-02-15T13:12:13.635Z,6.00